Time;durP1;ratioP1;P1;durP2;ratioP2;P2;SDS_P1;SDS_P2;PMS_P1;PMS_P2;Temp;Humidity;BMP_temperature;BMP_pressure;BME280_temperature;BME280_humidity;BME280_pressure;Samples;Min_cycle;Max_cycle;Signal;HPM_P1;HPM_P2
2021/11/26 00:02:22;;;;;;;209.80;57.70;;;-1.20;96.70;;;;;;5034583;28;20036;-73
2021/11/26 00:04:49;;;;;;;119.55;49.70;;;-1.20;96.70;;;;;;5035528;28;20326;-74
2021/11/26 00:07:16;;;;;;;117.80;47.38;;;-1.20;95.70;;;;;;5035400;28;20045;-73
2021/11/26 00:09:42;;;;;;;162.63;52.35;;;-1.10;95.80;;;;;;5033478;28;20072;-74
2021/11/26 00:12:08;;;;;;;132.88;49.67;;;-1.10;96.40;;;;;;5035603;28;20053;-73
2021/11/26 00:14:35;;;;;;;128.77;48.53;;;-1.10;95.90;;;;;;5034938;28;20025;-74
2021/11/26 00:17:04;;;;;;;98.55;40.17;;;-1.10;96.00;;;;;;5034755;28;20357;-73
2021/11/26 00:19:31;;;;;;;126.68;45.13;;;-1.10;95.90;;;;;;5034774;28;20410;-74
2021/11/26 00:21:57;;;;;;;124.60;46.08;;;-1.20;96.60;;;;;;5046905;28;20025;-74
2021/11/26 00:24:23;;;;;;;158.02;49.80;;;-1.10;96.60;;;;;;5037558;28;20037;-74
2021/11/26 00:26:49;;;;;;;155.80;49.47;;;-1.10;96.60;;;;;;5028304;28;20029;-74
2021/11/26 00:29:16;;;;;;;112.35;47.08;;;-1.20;96.40;;;;;;5034084;28;20037;-73
2021/11/26 00:31:42;;;;;;;118.40;44.72;;;-1.10;95.50;;;;;;5032343;28;20059;-74
2021/11/26 00:34:09;;;;;;;134.27;46.63;;;-1.10;96.40;;;;;;5034239;28;20021;-73
2021/11/26 00:36:35;;;;;;;149.80;50.58;;;-1.20;96.60;;;;;;5034024;28;20414;-73
2021/11/26 00:39:02;;;;;;;119.57;44.67;;;-1.20;96.50;;;;;;5034294;28;20055;-72
2021/11/26 00:41:28;;;;;;;159.95;49.78;;;-1.20;95.80;;;;;;5035204;28;20040;-72
2021/11/26 00:43:54;;;;;;;126.25;45.10;;;-1.10;95.90;;;;;;5025327;28;20425;-73
2021/11/26 00:46:23;;;;;;;148.63;50.75;;;-1.10;96.00;;;;;;5034270;28;20078;-74
2021/11/26 00:48:49;;;;;;;132.68;48.72;;;-1.20;96.10;;;;;;5033933;28;20026;-73
2021/11/26 00:51:15;;;;;;;176.93;53.03;;;-1.10;95.90;;;;;;5034547;28;20026;-74
2021/11/26 00:53:41;;;;;;;213.10;51.88;;;-1.20;95.60;;;;;;5032525;28;20028;-74
2021/11/26 00:56:07;;;;;;;109.57;42.38;;;-1.20;96.00;;;;;;5032478;28;20033;-73
2021/11/26 00:58:33;;;;;;;122.13;43.45;;;-1.20;95.90;;;;;;5034599;28;20322;-73
2021/11/26 01:00:58;;;;;;;136.38;45.08;;;-1.20;96.10;;;;;;5033327;28;20026;-74
2021/11/26 01:03:26;;;;;;;122.57;44.40;;;-1.20;95.60;;;;;;5032154;28;20025;-74
2021/11/26 01:05:52;;;;;;;132.52;46.47;;;-1.20;95.70;;;;;;5036445;28;20037;-73
2021/11/26 01:08:19;;;;;;;126.85;43.50;;;-1.20;95.00;;;;;;5037643;28;20042;-73
2021/11/26 01:10:46;;;;;;;100.13;40.00;;;-1.20;95.90;;;;;;5038711;28;20046;-72
2021/11/26 01:13:11;;;;;;;137.13;44.63;;;-1.20;94.90;;;;;;5037788;28;20025;-72
2021/11/26 01:15:39;;;;;;;169.75;51.28;;;-1.10;95.50;;;;;;5038162;28;20052;-74
2021/11/26 01:18:06;;;;;;;152.63;49.90;;;-1.10;96.10;;;;;;5038476;28;20014;-73
2021/11/26 01:20:34;;;;;;;208.23;53.83;;;-1.20;96.00;;;;;;5037669;28;20048;-72
2021/11/26 01:23:00;;;;;;;181.25;52.50;;;-1.20;96.10;;;;;;5037151;28;20025;-72
2021/11/26 01:25:27;;;;;;;180.02;51.03;;;-1.20;96.00;;;;;;5036007;28;20430;-72
2021/11/26 01:27:53;;;;;;;214.38;55.38;;;-1.20;95.70;;;;;;5029187;28;20036;-73
2021/11/26 01:30:28;;;;;;;212.73;54.70;;;-1.30;95.90;;;;;;5037917;28;20159;-72
2021/11/26 01:32:56;;;;;;;160.77;52.25;;;-1.30;95.80;;;;;;5038457;28;20029;-72
2021/11/26 01:35:21;;;;;;;145.15;48.58;;;-1.30;95.50;;;;;;5037436;28;20026;-73
2021/11/26 01:37:47;;;;;;;132.85;47.53;;;-1.20;95.50;;;;;;5038147;28;20433;-73
2021/11/26 01:40:14;;;;;;;203.63;53.40;;;-1.20;95.40;;;;;;5036515;28;20033;-73
2021/11/26 01:42:40;;;;;;;120.25;47.83;;;-1.30;96.00;;;;;;5038599;28;20029;-73
2021/11/26 01:45:07;;;;;;;194.00;54.40;;;-1.30;94.90;;;;;;5037707;28;20397;-75
2021/11/26 01:47:33;;;;;;;158.98;50.65;;;-1.20;95.40;;;;;;5035509;28;20025;-72
2021/11/26 01:49:59;;;;;;;165.52;52.25;;;-1.30;95.70;;;;;;5036629;28;20087;-73
2021/11/26 01:52:25;;;;;;;167.50;51.53;;;-1.30;95.60;;;;;;5036651;28;20021;-72
2021/11/26 01:54:51;;;;;;;222.73;56.33;;;-1.30;96.00;;;;;;5034795;28;20033;-72
2021/11/26 01:57:19;;;;;;;254.48;60.25;;;-1.30;95.40;;;;;;5038086;28;20068;-73
2021/11/26 01:59:48;;;;;;;227.57;56.35;;;-1.30;95.20;;;;;;5037413;28;20048;-74
2021/11/26 02:02:14;;;;;;;175.35;52.72;;;-1.30;95.50;;;;;;5037245;28;20045;-73
2021/11/26 02:04:39;;;;;;;217.07;56.28;;;-1.30;95.50;;;;;;5037604;28;20030;-73
2021/11/26 02:07:05;;;;;;;217.35;55.85;;;-1.30;95.10;;;;;;5037197;28;20029;-73
2021/11/26 02:09:30;;;;;;;167.48;49.47;;;-1.30;94.80;;;;;;5035802;28;20345;-73
2021/11/26 02:11:59;;;;;;;271.05;60.85;;;-1.30;95.20;;;;;;5037022;28;20299;-73
2021/11/26 02:14:25;;;;;;;209.32;49.47;;;-1.40;95.10;;;;;;5037946;28;20112;-73
2021/11/26 02:16:52;;;;;;;200.02;53.28;;;-1.40;95.40;;;;;;5036194;28;20022;-73
2021/11/26 02:19:21;;;;;;;257.77;57.72;;;-1.50;94.70;;;;;;5037185;28;20580;-74
2021/11/26 02:21:47;;;;;;;195.25;54.15;;;-1.50;94.80;;;;;;5035623;28;20430;-74
2021/11/26 02:24:13;;;;;;;201.82;53.10;;;-1.40;94.10;;;;;;5035773;28;20056;-73
2021/11/26 02:26:41;;;;;;;246.65;55.60;;;-1.40;93.80;;;;;;5037955;28;20033;-73
2021/11/26 02:29:08;;;;;;;167.70;52.80;;;-1.40;94.10;;;;;;5036999;28;20079;-74
2021/11/26 02:31:34;;;;;;;191.98;52.08;;;-1.40;94.20;;;;;;5034946;28;20384;-74
2021/11/26 02:34:00;;;;;;;195.15;51.00;;;-1.40;93.90;;;;;;5037201;28;20060;-74
2021/11/26 02:36:26;;;;;;;157.70;48.72;;;-1.40;94.30;;;;;;5037657;28;20056;-74
2021/11/26 02:38:52;;;;;;;185.95;51.50;;;-1.40;93.30;;;;;;5035614;28;20046;-72
2021/11/26 02:41:17;;;;;;;132.15;45.40;;;-1.30;93.80;;;;;;5036454;28;20036;-74
2021/11/26 02:43:43;;;;;;;151.27;49.67;;;-1.30;93.70;;;;;;5036735;28;20056;-73
2021/11/26 02:46:09;;;;;;;169.85;51.78;;;-1.30;94.50;;;;;;5036706;28;20029;-73
2021/11/26 02:48:34;;;;;;;165.23;48.03;;;-1.20;93.70;;;;;;5035462;28;20037;-73
2021/11/26 02:51:00;;;;;;;129.30;46.58;;;-1.20;94.60;;;;;;5035969;28;20100;-73
2021/11/26 02:53:26;;;;;;;156.43;48.40;;;-1.20;94.50;;;;;;5035402;28;20053;-74
2021/11/26 02:55:52;;;;;;;189.23;51.92;;;-1.20;94.90;;;;;;5036095;28;20018;-73
2021/11/26 02:58:19;;;;;;;183.52;51.75;;;-1.30;95.20;;;;;;5037130;28;20021;-74
2021/11/26 03:00:48;;;;;;;224.68;55.88;;;-1.30;95.00;;;;;;5035525;28;20024;-74
2021/11/26 03:03:14;;;;;;;212.70;55.40;;;-1.30;95.80;;;;;;5036936;28;20025;-72
2021/11/26 03:05:40;;;;;;;201.63;55.97;;;-1.40;95.50;;;;;;5035884;28;20083;-74
2021/11/26 03:08:09;;;;;;;187.20;53.67;;;-1.40;95.00;;;;;;5036133;28;20028;-74
2021/11/26 03:10:36;;;;;;;132.80;46.30;;;-1.40;95.40;;;;;;5035057;28;20053;-74
2021/11/26 03:13:08;;;;;;;153.77;53.83;;;-1.30;94.80;;;;;;5034918;28;20028;-74
2021/11/26 03:15:36;;;;;;;168.05;50.40;;;-1.30;94.80;;;;;;5035183;28;20026;-74
2021/11/26 03:18:02;;;;;;;163.68;51.03;;;-1.30;95.40;;;;;;5034414;28;20033;-74
2021/11/26 03:20:29;;;;;;;237.48;59.45;;;-1.30;95.20;;;;;;5036334;28;20056;-73
2021/11/26 03:22:58;;;;;;;226.15;58.50;;;-1.40;95.40;;;;;;5037199;28;20017;-73
2021/11/26 03:25:24;;;;;;;232.48;60.85;;;-1.40;94.90;;;;;;5032534;28;20083;-74
2021/11/26 03:27:50;;;;;;;212.40;57.85;;;-1.40;95.10;;;;;;5034179;28;20064;-74
2021/11/26 03:30:19;;;;;;;245.55;60.97;;;-1.40;94.50;;;;;;5034716;28;20113;-72
2021/11/26 03:32:46;;;;;;;183.93;55.72;;;-1.40;94.90;;;;;;5035432;28;20029;-73
2021/11/26 03:35:15;;;;;;;185.32;56.47;;;-1.50;94.70;;;;;;5035394;28;20026;-72
2021/11/26 03:37:41;;;;;;;233.38;57.78;;;-1.50;94.70;;;;;;5036029;28;20030;-72
2021/11/26 03:40:10;;;;;;;166.15;52.47;;;-1.40;94.60;;;;;;5034723;28;20364;-73
2021/11/26 03:42:36;;;;;;;194.85;51.42;;;-1.40;95.00;;;;;;5036428;28;20065;-74
2021/11/26 03:45:03;;;;;;;127.22;46.88;;;-1.50;95.00;;;;;;5035819;28;20075;-73
2021/11/26 03:47:29;;;;;;;189.07;52.60;;;-1.50;94.60;;;;;;5035148;28;20102;-73
2021/11/26 03:49:54;;;;;;;203.98;57.55;;;-1.40;94.40;;;;;;5034739;28;20361;-74
2021/11/26 03:52:20;;;;;;;135.20;49.08;;;-1.40;94.60;;;;;;5035226;28;20029;-73
2021/11/26 03:54:46;;;;;;;119.68;45.55;;;-1.40;94.90;;;;;;5034553;28;20083;-74
2021/11/26 03:57:11;;;;;;;107.78;42.03;;;-1.30;94.10;;;;;;5035171;28;20114;-73
2021/11/26 03:59:37;;;;;;;130.43;45.38;;;-1.20;94.50;;;;;;5035138;28;20473;-73
2021/11/26 04:02:04;;;;;;;121.88;45.05;;;-1.30;95.10;;;;;;5033334;28;20436;-73
2021/11/26 04:04:30;;;;;;;137.30;44.83;;;-1.20;95.00;;;;;;5034884;28;20052;-73
2021/11/26 04:06:58;;;;;;;171.52;51.10;;;-1.20;95.40;;;;;;5036473;28;20410;-74
2021/11/26 04:09:24;;;;;;;148.15;49.42;;;-1.20;95.70;;;;;;5034118;28;20053;-74
2021/11/26 04:11:53;;;;;;;218.85;58.33;;;-1.20;95.40;;;;;;5035625;28;20032;-74
2021/11/26 04:14:21;;;;;;;165.15;54.42;;;-1.30;96.50;;;;;;5035488;28;20029;-74
2021/11/26 04:16:48;;;;;;;215.70;57.22;;;-1.40;95.80;;;;;;5034149;28;20111;-73
2021/11/26 04:19:15;;;;;;;188.77;54.95;;;-1.40;95.90;;;;;;5035545;28;20022;-73
2021/11/26 04:21:41;;;;;;;171.32;52.55;;;-1.40;95.90;;;;;;5034480;28;20113;-74
2021/11/26 04:24:06;;;;;;;204.93;54.35;;;-1.40;95.10;;;;;;5034043;28;20100;-74
2021/11/26 04:26:32;;;;;;;174.55;52.08;;;-1.40;95.90;;;;;;5035484;28;20132;-73
2021/11/26 04:28:59;;;;;;;192.05;55.75;;;-1.40;95.50;;;;;;5035251;28;20029;-74
2021/11/26 04:31:26;;;;;;;196.27;54.92;;;-1.40;95.60;;;;;;5035074;28;20017;-73
2021/11/26 04:33:54;;;;;;;150.38;48.42;;;-1.40;95.40;;;;;;5032666;28;20025;-73
2021/11/26 04:36:20;;;;;;;153.60;50.25;;;-1.40;95.40;;;;;;5034701;28;20026;-73
2021/11/26 04:38:46;;;;;;;145.60;47.40;;;-1.30;94.80;;;;;;5033354;28;20025;-73
2021/11/26 04:41:11;;;;;;;185.07;54.10;;;-1.30;95.10;;;;;;5035074;28;20398;-74
2021/11/26 04:43:37;;;;;;;159.93;51.17;;;-1.30;95.70;;;;;;5034394;28;20083;-74
2021/11/26 04:46:03;;;;;;;206.52;54.85;;;-1.40;95.50;;;;;;5031222;28;20021;-73
2021/11/26 04:48:29;;;;;;;187.93;50.85;;;-1.40;95.60;;;;;;5025865;28;20064;-73
2021/11/26 04:50:55;;;;;;;167.85;48.40;;;-1.40;95.20;;;;;;5034130;28;20053;-74
2021/11/26 04:53:21;;;;;;;156.82;48.95;;;-1.40;95.00;;;;;;5033486;28;20485;-73
2021/11/26 04:55:47;;;;;;;214.85;54.55;;;-1.40;95.20;;;;;;5034561;28;20064;-73
2021/11/26 04:58:13;;;;;;;180.23;53.30;;;-1.40;95.20;;;;;;5034294;28;20021;-74
2021/11/26 05:00:39;;;;;;;134.73;45.85;;;-1.40;95.20;;;;;;5034140;28;20030;-73
2021/11/26 05:03:06;;;;;;;158.98;50.45;;;-1.40;94.80;;;;;;5034000;28;20018;-73
2021/11/26 05:05:32;;;;;;;174.77;49.70;;;-1.30;95.10;;;;;;5033777;28;20450;-73
2021/11/26 05:07:58;;;;;;;125.95;45.97;;;-1.30;94.90;;;;;;5033985;28;20033;-73
2021/11/26 05:10:25;;;;;;;164.85;47.60;;;-1.30;95.10;;;;;;5032333;28;20046;-73
2021/11/26 05:12:55;;;;;;;149.18;46.58;;;-1.30;95.50;;;;;;5032743;28;20362;-73
2021/11/26 05:15:26;;;;;;;124.82;43.55;;;-1.30;95.50;;;;;;5026460;28;20022;-73
2021/11/26 05:18:00;;;;;;;203.63;64.47;;;-1.40;95.50;;;;;;5034034;28;20057;-73
2021/11/26 05:20:30;;;;;;;;;;;-1.40;95.50;;;;;;5032353;28;20418;-72
2021/11/26 05:22:56;;;;;;;228.02;73.25;;;-1.40;95.60;;;;;;5033725;28;19971;-73
2021/11/26 05:25:22;;;;;;;324.45;111.68;;;-1.40;95.70;;;;;;5031654;28;20064;-72
2021/11/26 05:27:48;;;;;;;161.25;54.38;;;-1.40;95.70;;;;;;5034089;28;20030;-74
2021/11/26 05:30:14;;;;;;;173.88;49.83;;;-1.40;95.20;;;;;;5033327;28;20032;-72
2021/11/26 05:32:41;;;;;;;142.35;45.40;;;-1.40;95.70;;;;;;5034185;28;20025;-73
2021/11/26 05:35:12;;;;;;;150.25;45.28;;;-1.40;95.50;;;;;;5033333;28;20322;-74
2021/11/26 05:37:39;;;;;;;141.57;44.15;;;-1.40;95.70;;;;;;5033449;28;20516;-73
2021/11/26 05:40:07;;;;;;;136.23;43.58;;;-1.40;95.70;;;;;;5030507;28;20025;-73
2021/11/26 05:42:34;;;;;;;150.90;46.50;;;-1.40;95.20;;;;;;5033545;28;20029;-73
2021/11/26 05:45:00;;;;;;;144.68;44.75;;;-1.30;95.50;;;;;;5033112;28;20029;-74
2021/11/26 05:47:29;;;;;;;176.77;49.63;;;-1.30;95.60;;;;;;5033706;28;20025;-73
2021/11/26 05:49:54;;;;;;;182.85;53.50;;;-1.30;95.60;;;;;;5033161;28;20025;-74
2021/11/26 05:52:20;;;;;;;168.25;52.22;;;-1.30;95.60;;;;;;5037893;28;20067;-73
2021/11/26 05:54:45;;;;;;;201.05;53.70;;;-1.30;95.10;;;;;;5036558;28;20333;-74
2021/11/26 05:57:11;;;;;;;207.48;55.08;;;-1.30;95.90;;;;;;5037875;28;20021;-74
2021/11/26 05:59:37;;;;;;;192.65;52.60;;;-1.30;95.70;;;;;;5037269;28;20563;-74
2021/11/26 06:02:03;;;;;;;217.45;54.30;;;-1.30;95.90;;;;;;5036208;28;20052;-72
2021/11/26 06:04:31;;;;;;;184.43;53.22;;;-1.40;95.70;;;;;;5036703;28;20433;-73
2021/11/26 06:06:57;;;;;;;171.63;50.70;;;-1.40;95.70;;;;;;5037301;28;20053;-73
2021/11/26 06:09:23;;;;;;;157.98;50.33;;;-1.30;95.10;;;;;;5034659;28;20045;-72
2021/11/26 06:11:49;;;;;;;192.70;51.92;;;-1.30;95.20;;;;;;5035639;28;20026;-74
2021/11/26 06:14:15;;;;;;;204.93;56.35;;;-1.30;95.70;;;;;;5036411;28;20021;-74
2021/11/26 06:16:41;;;;;;;185.55;51.20;;;-1.40;95.90;;;;;;5034821;28;20029;-74
2021/11/26 06:19:06;;;;;;;139.38;47.60;;;-1.40;95.70;;;;;;5037230;28;20064;-73
2021/11/26 06:21:32;;;;;;;206.43;56.00;;;-1.30;95.40;;;;;;5037654;28;20022;-74
2021/11/26 06:23:58;;;;;;;170.20;52.35;;;-1.30;95.60;;;;;;5036969;28;20033;-73
2021/11/26 06:26:24;;;;;;;156.27;50.08;;;-1.30;95.70;;;;;;5037169;28;20029;-73
2021/11/26 06:28:50;;;;;;;180.27;51.33;;;-1.30;95.40;;;;;;5037375;28;20026;-72
2021/11/26 06:31:16;;;;;;;171.13;49.20;;;-1.30;95.60;;;;;;5029331;28;20033;-72
2021/11/26 06:33:41;;;;;;;140.43;47.50;;;-1.40;95.80;;;;;;5024156;28;20115;-73
2021/11/26 06:36:15;;;;;;;171.35;51.20;;;-1.30;95.50;;;;;;5040542;28;20029;-73
2021/11/26 06:38:40;;;;;;;168.27;53.10;;;-1.30;95.10;;;;;;5036071;28;20096;-74
2021/11/26 06:41:06;;;;;;;149.60;47.08;;;-1.20;95.10;;;;;;5036017;28;20164;-72
2021/11/26 06:43:32;;;;;;;159.18;49.03;;;-1.10;95.00;;;;;;5036385;28;20061;-74
2021/11/26 06:45:57;;;;;;;133.52;45.97;;;-1.10;95.30;;;;;;5034139;28;20031;-74
2021/11/26 06:48:27;;;;;;;168.73;50.40;;;-1.10;95.30;;;;;;5037872;28;20068;-73
2021/11/26 06:50:53;;;;;;;124.60;45.03;;;-1.10;95.90;;;;;;5037612;28;20025;-72
2021/11/26 06:53:18;;;;;;;162.55;49.35;;;-1.00;96.10;;;;;;5036300;28;20108;-73
2021/11/26 06:55:45;;;;;;;144.48;47.83;;;-1.00;96.00;;;;;;5037687;28;20407;-73
2021/11/26 06:58:17;;;;;;;167.50;51.10;;;-1.00;96.30;;;;;;5036474;28;20116;-73
2021/11/26 07:00:42;;;;;;;181.88;54.35;;;-1.00;96.60;;;;;;5037789;28;20060;-73
2021/11/26 07:03:08;;;;;;;159.57;51.58;;;-1.00;96.50;;;;;;5036122;28;20367;-73
2021/11/26 07:05:34;;;;;;;147.07;47.28;;;-1.00;96.70;;;;;;5037355;28;20104;-73
2021/11/26 07:07:59;;;;;;;130.75;45.85;;;-1.00;96.70;;;;;;5037563;28;20017;-73
2021/11/26 07:10:28;;;;;;;185.32;53.13;;;-1.00;96.80;;;;;;5036114;28;20137;-74
2021/11/26 07:12:54;;;;;;;168.20;50.55;;;-1.00;97.20;;;;;;5035952;28;20022;-73
2021/11/26 07:15:20;;;;;;;153.88;48.55;;;-1.10;97.20;;;;;;5037626;28;20029;-73
2021/11/26 07:17:46;;;;;;;174.98;54.17;;;-1.10;96.90;;;;;;5037348;28;20109;-73
2021/11/26 07:20:14;;;;;;;182.13;54.20;;;-1.10;96.90;;;;;;5037135;28;20084;-73
2021/11/26 07:22:40;;;;;;;194.77;60.50;;;-1.10;97.10;;;;;;5037055;28;20097;-73
2021/11/26 07:25:06;;;;;;;177.38;57.08;;;-1.10;96.90;;;;;;5033819;28;20116;-73
2021/11/26 07:27:32;;;;;;;175.93;56.65;;;-1.10;97.10;;;;;;5037080;28;20109;-74
2021/11/26 07:29:58;;;;;;;147.18;48.70;;;-1.10;96.70;;;;;;5036922;28;20116;-73
2021/11/26 07:32:24;;;;;;;203.90;56.25;;;-1.10;96.70;;;;;;5037139;28;20098;-73
2021/11/26 07:34:51;;;;;;;154.23;50.60;;;-1.10;97.40;;;;;;5035794;28;20494;-73
2021/11/26 07:37:17;;;;;;;133.98;46.45;;;-1.10;96.80;;;;;;5035580;28;20049;-73
2021/11/26 07:39:43;;;;;;;176.95;51.83;;;-1.10;96.90;;;;;;5031877;28;20024;-74
2021/11/26 07:42:11;;;;;;;157.40;49.13;;;-1.10;96.90;;;;;;5036456;28;20059;-73
2021/11/26 07:44:38;;;;;;;143.35;49.13;;;-1.10;97.10;;;;;;5036802;28;20382;-74
2021/11/26 07:47:05;;;;;;;140.20;46.83;;;-1.00;97.10;;;;;;5035789;28;20318;-72
2021/11/26 07:49:32;;;;;;;129.63;44.33;;;-1.00;97.60;;;;;;5036114;28;20033;-74
2021/11/26 07:51:59;;;;;;;148.82;47.33;;;-1.00;97.70;;;;;;5036502;28;20033;-73
2021/11/26 07:54:25;;;;;;;137.52;47.45;;;-1.00;97.90;;;;;;5034300;28;20029;-73
2021/11/26 07:56:51;;;;;;;131.50;45.72;;;-1.00;97.60;;;;;;5026632;28;20029;-73
2021/11/26 07:59:17;;;;;;;134.93;46.45;;;-1.00;97.70;;;;;;5033036;28;20406;-72
2021/11/26 08:01:43;;;;;;;141.90;47.42;;;-0.90;97.70;;;;;;5036523;28;20120;-73
2021/11/26 08:04:09;;;;;;;126.97;44.75;;;-0.90;97.90;;;;;;5035830;28;20029;-73
2021/11/26 08:06:35;;;;;;;142.52;47.90;;;-0.90;98.00;;;;;;5036171;28;20052;-73
2021/11/26 08:09:02;;;;;;;122.72;44.28;;;-0.90;98.00;;;;;;5035075;28;20116;-73
2021/11/26 08:11:28;;;;;;;121.70;43.92;;;-0.80;97.90;;;;;;5031679;28;20037;-73
2021/11/26 08:13:55;;;;;;;110.43;41.92;;;-0.80;97.90;;;;;;5035388;28;20029;-74
2021/11/26 08:16:22;;;;;;;120.57;43.03;;;-0.70;97.60;;;;;;5036066;28;20032;-73
2021/11/26 08:18:48;;;;;;;100.22;37.97;;;-0.60;98.00;;;;;;5036032;28;20021;-73
2021/11/26 08:21:13;;;;;;;103.60;46.90;;;-0.60;98.00;;;;;;5036278;28;20087;-74
2021/11/26 08:23:39;;;;;;;107.10;45.83;;;-0.40;98.00;;;;;;5034796;28;20057;-73
2021/11/26 08:26:05;;;;;;;96.35;41.33;;;-0.40;98.00;;;;;;5035804;28;20323;-74
2021/11/26 08:28:31;;;;;;;82.78;35.70;;;-0.30;98.00;;;;;;5036004;28;20030;-73
2021/11/26 08:30:56;;;;;;;84.40;35.63;;;-0.20;98.00;;;;;;5034864;28;20064;-74
2021/11/26 08:33:31;;;;;;;83.53;35.00;;;-0.20;98.00;;;;;;5035713;28;20030;-72
2021/11/26 08:35:57;;;;;;;75.85;32.70;;;-0.10;98.00;;;;;;5035641;28;20025;-73
2021/11/26 08:38:24;;;;;;;77.18;32.00;;;-0.10;98.00;;;;;;5034600;28;20406;-73
2021/11/26 08:40:53;;;;;;;74.22;31.45;;;-0.10;98.00;;;;;;5027992;28;20025;-74
2021/11/26 08:43:19;;;;;;;77.63;33.17;;;0.00;98.00;;;;;;5015869;28;20026;-73
2021/11/26 08:45:45;;;;;;;69.13;32.67;;;0.10;98.00;;;;;;5024194;28;20032;-74
2021/11/26 08:48:11;;;;;;;71.85;30.73;;;0.10;98.00;;;;;;5031011;28;20097;-74
2021/11/26 08:50:37;;;;;;;71.32;31.30;;;0.20;98.00;;;;;;5035430;28;20025;-73
2021/11/26 08:53:05;;;;;;;70.47;31.98;;;0.20;98.00;;;;;;5035777;28;20022;-74
2021/11/26 08:55:32;;;;;;;70.22;30.95;;;0.20;98.00;;;;;;5034428;28;20442;-72
2021/11/26 08:58:00;;;;;;;69.93;30.80;;;0.30;98.00;;;;;;5035642;28;20044;-74
2021/11/26 09:00:30;;;;;;;63.80;28.83;;;0.30;98.00;;;;;;5035381;28;20025;-73
2021/11/26 09:02:57;;;;;;;67.57;29.88;;;0.40;98.00;;;;;;5034621;28;20028;-74
2021/11/26 09:05:23;;;;;;;64.47;28.23;;;0.50;98.00;;;;;;5034219;28;20053;-74
2021/11/26 09:07:49;;;;;;;62.05;27.98;;;0.60;98.00;;;;;;5035365;28;20053;-72
2021/11/26 09:10:16;;;;;;;57.13;27.40;;;0.70;98.00;;;;;;5034280;28;20045;-74
2021/11/26 09:12:42;;;;;;;55.13;26.17;;;0.80;98.00;;;;;;5032287;28;20725;-73
2021/11/26 09:15:09;;;;;;;55.03;25.15;;;1.00;98.00;;;;;;5014331;28;20100;-73
2021/11/26 09:17:35;;;;;;;51.40;25.55;;;1.00;98.00;;;;;;5030713;28;20307;-74
2021/11/26 09:20:00;;;;;;;56.65;25.95;;;1.10;98.00;;;;;;5034051;28;20025;-73
2021/11/26 09:22:30;;;;;;;52.72;25.40;;;1.20;98.00;;;;;;5035305;28;20025;-73
2021/11/26 09:24:56;;;;;;;50.17;24.75;;;1.40;98.00;;;;;;5034161;28;20485;-73
2021/11/26 09:27:22;;;;;;;45.00;22.48;;;1.50;98.00;;;;;;5033972;28;20021;-72
2021/11/26 09:29:51;;;;;;;49.90;22.60;;;1.60;98.00;;;;;;5019387;28;20401;-72
2021/11/26 09:32:16;;;;;;;42.00;19.98;;;1.70;98.00;;;;;;5032383;28;20056;-74
2021/11/26 09:34:42;;;;;;;32.33;16.23;;;1.60;98.00;;;;;;5038246;28;20025;-74
2021/11/26 09:37:08;;;;;;;39.75;20.60;;;1.80;98.00;;;;;;5039133;28;20040;-74
2021/11/26 09:39:33;;;;;;;35.50;18.35;;;2.10;98.00;;;;;;5037943;28;20108;-74
2021/11/26 09:41:59;;;;;;;32.47;16.85;;;2.00;98.00;;;;;;5039139;28;20059;-74
2021/11/26 09:44:25;;;;;;;28.17;15.38;;;2.10;98.00;;;;;;5038884;28;20504;-73
2021/11/26 09:46:54;;;;;;;24.85;13.38;;;2.20;98.00;;;;;;5039178;28;20089;-73
2021/11/26 09:49:21;;;;;;;23.98;12.20;;;2.30;98.00;;;;;;5037994;28;20025;-73
2021/11/26 09:51:46;;;;;;;23.05;13.52;;;2.20;98.00;;;;;;5038695;28;20036;-74
2021/11/26 09:54:12;;;;;;;22.90;12.75;;;2.30;98.00;;;;;;5037809;28;20037;-74
2021/11/26 09:56:38;;;;;;;21.48;11.98;;;2.30;98.00;;;;;;5038766;28;20096;-74
2021/11/26 09:59:03;;;;;;;20.10;11.18;;;2.20;98.00;;;;;;5037635;28;20117;-74
2021/11/26 10:01:29;;;;;;;23.58;13.20;;;2.20;98.00;;;;;;5038712;28;20097;-74
2021/11/26 10:03:55;;;;;;;25.90;15.85;;;2.30;98.00;;;;;;5039698;28;20033;-74
2021/11/26 10:06:37;;;;;;;52.90;33.03;;;2.20;98.00;;;;;;5038741;28;20025;-74
2021/11/26 10:09:10;;;;;;;28.38;16.20;;;2.40;98.00;;;;;;5036867;28;20041;-75
2021/11/26 10:11:47;;;;;;;28.48;15.93;;;2.40;98.00;;;;;;5038576;28;20033;-74
2021/11/26 10:14:15;;;;;;;26.63;15.57;;;2.40;98.00;;;;;;5037812;28;20029;-74
2021/11/26 10:16:49;;;;;;;39.53;27.05;;;2.30;98.00;;;;;;5037795;28;20025;-74
2021/11/26 10:19:16;;;;;;;;;;;2.30;98.00;;;;;;5038889;28;20026;-74
2021/11/26 10:21:42;;;;;;;39.17;23.25;;;2.30;98.00;;;;;;5037649;28;19917;-74
2021/11/26 10:24:16;;;;;;;39.05;22.60;;;2.00;98.00;;;;;;5036082;28;20029;-74
2021/11/26 10:26:50;;;;;;;33.25;19.67;;;1.90;98.00;;;;;;5038162;28;20036;-73
2021/11/26 10:29:26;;;;;;;31.52;18.60;;;1.90;98.00;;;;;;5037296;28;20033;-73
2021/11/26 10:32:05;;;;;;;51.83;31.70;;;1.90;98.00;;;;;;5036762;28;20040;-73
2021/11/26 10:34:31;;;;;;;34.80;18.73;;;1.80;98.00;;;;;;5036911;28;20427;-74
2021/11/26 10:36:57;;;;;;;37.92;20.20;;;1.60;98.00;;;;;;5037920;28;20021;-73
2021/11/26 10:39:24;;;;;;;41.78;21.90;;;1.50;98.00;;;;;;5036129;28;20068;-74
2021/11/26 10:41:54;;;;;;;42.38;22.73;;;1.50;98.00;;;;;;5037682;28;20056;-74
2021/11/26 10:44:30;;;;;;;43.72;25.65;;;1.40;98.00;;;;;;5037825;28;20036;-74
2021/11/26 10:49:46;;;;;;;44.47;22.55;;;1.50;98.00;;;;;;5038017;28;20039;-75
2021/11/26 10:58:16;;;;;;;49.47;22.50;;;1.60;98.00;;;;;;5015985;28;20026;-73
2021/11/26 11:00:42;;;;;;;41.13;22.42;;;1.70;98.00;;;;;;5035784;28;20088;-75
2021/11/26 11:03:08;;;;;;;40.38;22.05;;;1.80;98.00;;;;;;5035966;28;20022;-74
2021/11/26 11:05:39;;;;;;;34.47;19.35;;;2.00;98.00;;;;;;5037582;28;20028;-74
2021/11/26 11:08:22;;;;;;;28.20;16.52;;;2.00;98.00;;;;;;5036277;28;20028;-75
2021/11/26 11:10:49;;;;;;;27.90;16.20;;;2.10;98.00;;;;;;5022440;28;20054;-74
2021/11/26 11:13:29;;;;;;;21.20;12.02;;;2.00;98.00;;;;;;5017514;28;20271;-74
2021/11/26 11:16:06;;;;;;;23.05;12.68;;;2.10;98.00;;;;;;5031481;28;20032;-74
2021/11/26 11:18:32;;;;;;;17.38;9.63;;;2.00;98.00;;;;;;5031232;28;20127;-74
2021/11/26 11:20:58;;;;;;;16.35;9.18;;;2.20;98.00;;;;;;5037433;28;20013;-74
2021/11/26 11:23:24;;;;;;;15.05;9.52;;;2.30;98.00;;;;;;5026428;28;20026;-74
2021/11/26 11:25:50;;;;;;;17.40;10.40;;;2.30;98.00;;;;;;5017427;28;20053;-75
2021/11/26 11:28:15;;;;;;;18.60;11.52;;;2.40;98.00;;;;;;5016364;28;20115;-74
2021/11/26 11:30:41;;;;;;;14.70;8.63;;;2.40;98.00;;;;;;5017226;28;20439;-75
2021/11/26 11:33:08;;;;;;;15.65;10.32;;;2.30;98.00;;;;;;5025664;28;20414;-75
2021/11/26 11:35:38;;;;;;;17.55;11.45;;;2.30;98.00;;;;;;5036663;28;20047;-74
2021/11/26 11:38:07;;;;;;;15.40;10.63;;;2.30;98.00;;;;;;5036189;28;20053;-74
2021/11/26 11:40:37;;;;;;;29.48;17.45;;;2.20;98.00;;;;;;5036237;28;20018;-75
2021/11/26 11:43:21;;;;;;;37.45;23.92;;;2.10;98.00;;;;;;5030863;28;20025;-74
2021/11/26 11:46:15;;;;;;;32.33;18.23;;;1.90;98.00;;;;;;5018868;28;20040;-74
2021/11/26 11:48:50;;;;;;;37.97;22.80;;;1.80;98.00;;;;;;5035087;28;20116;-73
2021/11/26 11:51:25;;;;;;;31.25;18.35;;;1.70;98.00;;;;;;5035063;28;20029;-74
2021/11/26 11:54:12;;;;;;;35.83;19.05;;;1.60;98.00;;;;;;5043902;28;20025;-74
2021/11/26 11:56:56;;;;;;;35.67;19.23;;;1.60;98.00;;;;;;5017689;28;20032;-74
2021/11/26 11:59:24;;;;;;;;;;;1.60;98.00;;;;;;5035582;28;20022;-74
2021/11/26 12:01:50;;;;;;;28.08;15.50;;;1.70;98.00;;;;;;5033281;28;19904;-74
2021/11/26 12:04:19;;;;;;;26.85;15.32;;;1.80;98.00;;;;;;5034631;28;20487;-75
2021/11/26 12:06:49;;;;;;;24.00;13.90;;;1.80;98.00;;;;;;5036230;28;20443;-75
2021/11/26 12:09:23;;;;;;;32.72;20.38;;;1.80;98.00;;;;;;5034758;28;20112;-74
2021/11/26 12:11:55;;;;;;;29.48;15.73;;;1.90;98.00;;;;;;5035908;28;20025;-75
2021/11/26 12:14:21;;;;;;;25.50;14.32;;;1.90;98.00;;;;;;5035704;28;20037;-74
2021/11/26 12:17:11;;;;;;;22.40;13.32;;;1.80;98.00;;;;;;5036172;28;20021;-74
2021/11/26 12:19:36;;;;;;;22.05;12.27;;;1.80;98.00;;;;;;5035583;28;20021;-74
2021/11/26 12:22:15;;;;;;;25.63;14.05;;;1.80;98.00;;;;;;5033925;28;20032;-74
2021/11/26 12:24:45;;;;;;;22.13;13.48;;;1.90;98.00;;;;;;5028974;28;20025;-74
2021/11/26 12:27:22;;;;;;;21.23;11.85;;;1.90;98.00;;;;;;5034911;28;20028;-75
2021/11/26 12:29:51;;;;;;;24.48;14.45;;;1.80;98.00;;;;;;5032396;28;20430;-74
2021/11/26 12:32:23;;;;;;;22.98;13.07;;;1.90;98.00;;;;;;5028135;28;20042;-74
2021/11/26 12:34:58;;;;;;;22.80;12.98;;;1.90;98.00;;;;;;5035256;28;20045;-74